This is the latest recevied weather packets stored in our database for station/object IZ5MMH-14. If no packets are shown the sender has not sent any weather packets the latest 10 day(s).
| Time | Temp. | Humidity | Pressure | Rain* | Wind** | Luminosity | Snow |
|---|---|---|---|---|---|---|---|
| 1777671609 | 14.44° C | 39% | 1024.8 hPa | - | - | - | - |
| 1777670409 | 15° C | 39% | 1024.7 hPa | - | - | - | - |
| 1777669209 | 15.56° C | 38% | 1024.7 hPa | - | - | - | - |
| 1777667409 | 16.67° C | 36% | 1024.5 hPa | - | - | - | - |
| 1777664409 | 17.22° C | 36% | 1023.9 hPa | - | - | - | - |
| 1777663209 | 17.78° C | 35% | 1023.7 hPa | - | - | - | - |
| 1777662609 | 17.78° C | 33% | 1023.6 hPa | - | - | - | - |
| 1777660809 | 20.56° C | 30% | 1023.1 hPa | - | - | - | - |
| 1777659009 | 21.67° C | 26% | 1022.7 hPa | - | - | - | - |
| 1777656009 | 22.78° C | 25% | 1022.2 hPa | - | - | - | - |
| 1777651809 | 23.33° C | 31% | 1021.9 hPa | - | - | - | - |
| 1777650009 | 23.33° C | 22% | 1022 hPa | - | - | - | - |
| 1777649409 | 22.78° C | 34% | 1022.1 hPa | - | - | - | - |
| 1777648809 | 22.22° C | 42% | 1022.1 hPa | - | - | - | - |
| 1777648208 | 22.78° C | 34% | 1021.9 hPa | - | - | - | - |
| 1777646409 | 22.78° C | 38% | 1022.1 hPa | - | - | - | - |
| 1777645809 | 22.78° C | 30% | 1022.1 hPa | - | - | - | - |
| 1777645209 | 22.78° C | 31% | 1022.2 hPa | - | - | - | - |
| 1777644609 | 22.78° C | 27% | 1022.2 hPa | - | - | - | - |
| 1777643409 | 22.22° C | 34% | 1022.3 hPa | - | - | - | - |
| 1777642809 | 22.78° C | 27% | 1022.5 hPa | - | - | - | - |
| 1777642208 | 22.22° C | 37% | 1022.5 hPa | - | - | - | - |
| 1777641609 | 22.22° C | 37% | 1022.7 hPa | - | - | - | - |
| 1777641009 | 22.78° C | 32% | 1022.7 hPa | - | - | - | - |
| 1777639809 | 22.78° C | 28% | 1022.8 hPa | - | - | - | - |
* Rain since midnight (hover to see other rain measurements)
** Current wind speed in m/s (hover to see current wind gust speed)